High Gate, Missouri
Current Conditions -  °F | °C
As of 12:53 AM on Saturday 25 Oct 2014 (Local Time) from KVIH Reporting Station
Clear Clear  
Wind Chill: 60°   Ceiling: Unl
Heat Index: 60°   Visibility: 10mi
Dew Point: 57°   Wind: 12mph
Humidity: 90%   Direction: 210°SSW
Pressure: 30.01"   Gusts: NA
Location:  37.9936°N, 91.5964°W
Report Text: KVIH 250553Z AUTO 21010KT 10SM CLR 16/14 A3001 RMK AO2 SLP157 T01560139 10183 20156 402170078 58001
Loading
Personal Weather Stations






























Interactive Weather Map
Tropical Storm Tracking
New forecast layout! Learn more

10-Day Weather Forecast

Advertisements
Track Severe Weather on mobile